Time;durP1;ratioP1;P1;durP2;ratioP2;P2;SDS_P1;SDS_P2;PMS_P1;PMS_P2;Temp;Humidity;BMP_temperature;BMP_pressure;BME280_temperature;BME280_humidity;BME280_pressure;Samples;Min_cycle;Max_cycle;Signal;HPM_P1;HPM_P2
2023/07/31 07:02:56;;;;;;;4.15;1.33;;;18.70;46.10;;;;;;5064713;28;20106;-69
2023/07/31 07:05:23;;;;;;;8.43;1.73;;;18.60;46.40;;;;;;5055705;28;20071;-69
2023/07/31 07:07:52;;;;;;;3.38;1.38;;;18.60;46.60;;;;;;5051393;28;20041;-69
2023/07/31 07:10:19;;;;;;;2.55;1.20;;;18.50;46.90;;;;;;5030525;28;20442;-68
2023/07/31 07:12:46;;;;;;;3.95;1.42;;;18.50;47.20;;;;;;5060752;28;20021;-68
2023/07/31 07:15:14;;;;;;;5.35;1.60;;;18.40;47.40;;;;;;5038622;28;20072;-68
2023/07/31 07:17:41;;;;;;;3.92;1.50;;;18.40;47.80;;;;;;5068697;28;20036;-68
2023/07/31 07:20:09;;;;;;;3.30;1.20;;;18.40;48.00;;;;;;5051237;28;20494;-68
2023/07/31 07:22:36;;;;;;;3.95;1.77;;;18.30;47.80;;;;;;5068966;28;20024;-68
2023/07/31 07:25:05;;;;;;;3.33;1.40;;;18.30;47.90;;;;;;5068269;28;20037;-69
2023/07/31 07:27:32;;;;;;;3.45;1.92;;;18.30;47.80;;;;;;5048904;28;20036;-68
2023/07/31 07:29:59;;;;;;;7.85;1.88;;;18.20;47.90;;;;;;5068874;28;20115;-68
2023/07/31 07:32:27;;;;;;;2.80;1.45;;;18.20;48.10;;;;;;5068933;28;20103;-68
2023/07/31 07:34:54;;;;;;;4.95;1.77;;;18.20;48.30;;;;;;5040423;28;20130;-68
2023/07/31 07:37:21;;;;;;;3.72;1.60;;;18.10;48.90;;;;;;5048442;28;20041;-68
2023/07/31 07:39:48;;;;;;;4.63;1.73;;;18.00;49.00;;;;;;5047510;28;20045;-69
2023/07/31 07:42:16;;;;;;;2.63;1.40;;;18.00;49.10;;;;;;5030974;28;20438;-69
2023/07/31 07:44:43;;;;;;;6.35;1.40;;;18.00;49.10;;;;;;5049792;28;20415;-75
2023/07/31 07:47:10;;;;;;;3.40;1.42;;;17.90;49.50;;;;;;5049961;28;20554;-76
2023/07/31 07:49:37;;;;;;;4.10;1.33;;;18.00;50.00;;;;;;5049021;28;20044;-76
2023/07/31 07:52:05;;;;;;;4.68;2.95;;;17.80;49.30;;;;;;5050722;28;20485;-75
2023/07/31 07:54:32;;;;;;;35.60;11.57;;;17.80;49.50;;;;;;5046828;28;20029;-75
2023/07/31 07:57:00;;;;;;;22.33;12.13;;;17.80;50.20;;;;;;5040233;28;20450;-75
2023/07/31 07:59:27;;;;;;;17.70;10.95;;;17.80;49.90;;;;;;5033931;28;20445;-75
2023/07/31 08:01:54;;;;;;;16.95;9.23;;;17.80;49.70;;;;;;5051603;28;20063;-76
2023/07/31 08:04:21;;;;;;;14.98;10.00;;;17.70;49.30;;;;;;5051669;28;20473;-76
2023/07/31 08:06:49;;;;;;;18.85;10.05;;;17.70;49.20;;;;;;5062731;28;20486;-76
2023/07/31 08:09:16;;;;;;;19.02;11.13;;;17.70;49.60;;;;;;5011998;28;20063;-69
2023/07/31 08:11:43;;;;;;;28.60;17.00;;;17.70;50.10;;;;;;5054352;28;20442;-69
2023/07/31 08:14:11;;;;;;;18.80;10.35;;;17.50;49.80;;;;;;5051650;28;20111;-72
2023/07/31 08:16:38;;;;;;;11.52;6.28;;;17.50;49.70;;;;;;5054775;28;20511;-69
2023/07/31 08:19:05;;;;;;;14.02;8.18;;;17.50;50.10;;;;;;5050771;28;20079;-69
2023/07/31 08:21:33;;;;;;;13.70;6.20;;;17.40;50.80;;;;;;5052576;28;20037;-69
2023/07/31 08:24:00;;;;;;;6.75;3.65;;;17.40;51.40;;;;;;5037198;28;20430;-71
2023/07/31 08:26:27;;;;;;;8.02;3.45;;;17.30;51.50;;;;;;5059935;28;20044;-70
2023/07/31 08:28:54;;;;;;;8.20;3.97;;;17.30;51.30;;;;;;5044959;28;20036;-69
2023/07/31 08:31:22;;;;;;;7.82;4.07;;;17.30;51.60;;;;;;5051195;28;20053;-69
2023/07/31 08:33:49;;;;;;;8.80;4.03;;;17.20;52.10;;;;;;5054065;28;20035;-72
2023/07/31 08:36:16;;;;;;;9.02;2.88;;;17.20;52.10;;;;;;5041452;28;20402;-73
2023/07/31 08:38:43;;;;;;;6.22;2.97;;;17.20;52.20;;;;;;5053286;28;20054;-69
2023/07/31 08:41:12;;;;;;;7.20;3.25;;;17.20;52.50;;;;;;5070235;28;20037;-69
2023/07/31 08:43:40;;;;;;;7.90;3.35;;;17.20;52.80;;;;;;5067975;28;20071;-68
2023/07/31 08:46:08;;;;;;;9.52;2.90;;;17.10;53.40;;;;;;5050179;28;20509;-69
2023/07/31 08:48:35;;;;;;;8.20;3.03;;;17.00;53.50;;;;;;5032952;28;20040;-68
2023/07/31 08:51:03;;;;;;;5.93;3.53;;;17.00;53.90;;;;;;5013213;28;20042;-69
2023/07/31 08:53:30;;;;;;;12.13;5.68;;;17.00;54.10;;;;;;5032149;28;20025;-68
2023/07/31 08:56:00;;;;;;;;;;;16.90;54.30;;;;;;5032064;28;20056;-69
2023/07/31 08:58:28;;;;;;;12.35;5.28;;;16.90;54.60;;;;;;5039062;28;19976;-69
2023/07/31 09:00:55;;;;;;;7.43;3.60;;;16.90;55.30;;;;;;5016877;28;20064;-68
2023/07/31 09:03:23;;;;;;;8.48;2.90;;;16.70;56.00;;;;;;5041523;28;20108;-69
2023/07/31 09:05:51;;;;;;;9.10;3.20;;;16.70;57.00;;;;;;5037934;28;20047;-69
2023/07/31 09:08:22;;;;;;;8.75;2.90;;;16.70;58.10;;;;;;5031697;28;20092;-69
2023/07/31 09:10:52;;;;;;;16.00;3.00;;;16.70;58.20;;;;;;5050020;28;20033;-67
2023/07/31 09:13:20;;;;;;;5.00;2.53;;;16.60;58.20;;;;;;5033812;28;20047;-67
2023/07/31 09:15:47;;;;;;;6.85;2.78;;;16.60;58.20;;;;;;5051230;28;20045;-68
2023/07/31 09:18:18;;;;;;;10.45;2.90;;;16.50;57.20;;;;;;5063972;28;20370;-67
2023/07/31 09:20:45;;;;;;;10.73;3.15;;;16.50;57.30;;;;;;5049228;28;20459;-68
2023/07/31 09:23:14;;;;;;;5.70;2.83;;;16.40;57.50;;;;;;5050413;28;20115;-67
2023/07/31 09:25:44;;;;;;;8.80;3.05;;;16.40;57.60;;;;;;5050584;28;20120;-68
2023/07/31 21:18:07;;;;;;;5.95;1.27;;;12.00;68.90;;;;;;5090966;28;20056;-72
2023/07/31 21:20:36;;;;;;;5.72;1.00;;;12.00;68.80;;;;;;5092230;28;20028;-72
2023/07/31 21:23:07;;;;;;;4.85;1.27;;;12.00;69.20;;;;;;5090534;28;20028;-72
2023/07/31 21:25:35;;;;;;;2.85;1.25;;;11.90;68.90;;;;;;5093363;28;20133;-72
2023/07/31 21:28:03;;;;;;;4.00;1.65;;;12.00;68.70;;;;;;5093522;28;20039;-72
2023/07/31 21:30:32;;;;;;;3.88;1.45;;;12.00;68.40;;;;;;5093508;28;20035;-72
2023/07/31 21:32:59;;;;;;;3.13;1.40;;;12.00;68.10;;;;;;5092358;28;20090;-72
2023/07/31 21:35:27;;;;;;;4.32;1.30;;;12.00;68.30;;;;;;5093409;28;20486;-72
2023/07/31 21:37:54;;;;;;;3.30;1.25;;;12.00;68.00;;;;;;5093349;28;20032;-72
2023/07/31 21:40:21;;;;;;;5.80;1.45;;;12.10;68.20;;;;;;5093311;28;20108;-72
2023/07/31 21:42:53;;;;;;;2.83;1.23;;;12.10;68.30;;;;;;5091332;28;20102;-72
2023/07/31 21:45:23;;;;;;;7.90;1.40;;;12.20;68.40;;;;;;5092884;28;20044;-72
2023/07/31 21:47:51;;;;;;;4.65;1.83;;;12.20;68.10;;;;;;5075595;28;20031;-72
2023/07/31 21:50:18;;;;;;;8.95;1.83;;;12.10;68.20;;;;;;5091912;28;20031;-72
2023/07/31 21:52:45;;;;;;;8.18;1.80;;;12.20;68.20;;;;;;5091035;28;20039;-72
2023/07/31 21:55:13;;;;;;;8.27;1.75;;;12.20;68.10;;;;;;5091720;28;20097;-72
2023/07/31 21:57:40;;;;;;;5.78;1.80;;;12.20;68.40;;;;;;5092391;28;20036;-71
2023/07/31 22:00:08;;;;;;;3.55;1.58;;;12.20;67.90;;;;;;5091870;28;20135;-72
2023/07/31 22:02:36;;;;;;;6.10;2.13;;;12.30;68.20;;;;;;5092743;28;20028;-73
2023/07/31 22:05:04;;;;;;;6.57;1.65;;;12.40;68.20;;;;;;5092919;28;20032;-72
2023/07/31 22:07:31;;;;;;;4.57;1.42;;;12.40;67.50;;;;;;5092698;28;20539;-71
2023/07/31 22:09:58;;;;;;;6.63;1.50;;;12.50;67.60;;;;;;5090035;28;20039;-72
2023/07/31 22:12:26;;;;;;;7.30;1.33;;;12.50;67.40;;;;;;5091883;28;20089;-72
2023/07/31 22:14:53;;;;;;;7.05;1.60;;;12.60;67.70;;;;;;5091441;28;20440;-72
2023/07/31 22:17:20;;;;;;;5.13;1.60;;;12.60;67.40;;;;;;5092294;28;20086;-72
2023/07/31 22:19:48;;;;;;;2.42;1.08;;;12.70;67.50;;;;;;5092651;28;20640;-72
2023/07/31 22:22:16;;;;;;;4.93;1.60;;;12.70;67.40;;;;;;5092382;28;20036;-72
2023/07/31 22:24:46;;;;;;;6.97;2.40;;;12.70;66.70;;;;;;5091119;28;20047;-72
2023/07/31 22:27:17;;;;;;;3.70;1.33;;;12.80;66.50;;;;;;5090792;28;20482;-72
2023/07/31 22:29:43;;;;;;;;;;;12.80;66.40;;;;;;5091518;28;20040;-72
2023/07/31 22:32:11;;;;;;;4.75;1.40;;;12.90;66.10;;;;;;5092409;28;19903;-72
2023/07/31 22:34:38;;;;;;;3.67;1.42;;;12.90;65.90;;;;;;5092168;28;20063;-72
2023/07/31 22:37:05;;;;;;;4.82;1.50;;;13.00;65.60;;;;;;5092448;28;20123;-72
2023/07/31 22:39:33;;;;;;;9.07;1.73;;;13.00;65.40;;;;;;5092281;28;20036;-71
2023/07/31 22:42:00;;;;;;;4.57;1.38;;;13.10;65.40;;;;;;5092445;28;20111;-72
2023/07/31 22:44:27;;;;;;;7.60;1.60;;;13.20;65.60;;;;;;5092495;28;20111;-72
2023/07/31 22:46:54;;;;;;;5.53;1.60;;;13.20;65.40;;;;;;5092146;28;20089;-72
2023/07/31 22:49:22;;;;;;;6.38;1.48;;;13.20;65.20;;;;;;5092315;28;20032;-72
2023/07/31 22:51:49;;;;;;;4.15;1.80;;;13.20;65.10;;;;;;5092569;28;20111;-72
2023/07/31 22:54:17;;;;;;;3.03;1.33;;;13.30;65.10;;;;;;5092545;28;20383;-72
